Flight Track Log - Related Links

Times and Time Zones

All times are in EST time to prevent confusion due to time zone crossing. See the WOA3305 flight status page for this flight to view local times or setup timezone preferences in your user account.

Time Position Orientation Groundspeed Altitude Reporting Facility
EST Latitude Longitude Course Direction KTS MPH feet Rate Location/Type
Tue 12:58:05 PM 30.3887 -84.4068 267° West 212 244 1,400  Level FlightAware ADS-B
Tue 12:58:41 PM 30.4069 -84.4438 300° West 240 276 3,000 3,034 Climbing FlightAware ADS-B
Tue 12:59:34 PM 30.4549 -84.4978 316° Northwest 269 310 5,900 2,854 Climbing FlightAware ADS-B
Tue 01:00:03 PM 30.4745 -84.5201 315° West 274 315 6,900 2,571 Climbing FlightAware ADS-B
Tue 01:00:23 PM 30.4941 -84.5424 316° Northwest 272 313 8,000 3,474 Climbing FlightAware ADS-B
Tue 01:00:41 PM 30.5145 -84.5654 316° Northwest 271 312 9,100 3,000 Climbing FlightAware ADS-B
Tue 01:00:59 PM 30.5313 -84.5843 316° Northwest 279 321 9,800 2,151 Climbing FlightAware ADS-B
Tue 01:01:34 PM 30.5645 -84.6220 316° Northwest 306 352 11,000 2,169 Climbing FlightAware ADS-B
Tue 01:02:22 PM 30.5822 -84.6416 316° Northwest 325 374 12,800 2,138 Climbing FlightAware ADS-B
Tue 01:03:01 PM 30.6512 -84.7221 315° West 349 402 14,100 1,792 Climbing FlightAware ADS-B
Tue 01:03:39 PM 30.6958 -84.7690 310° West 376 433 15,100 1,773 Climbing FlightAware ADS-B
Tue 01:03:45 PM 30.6874 -84.7602 138° Southeast 388 447 15,400 1,364 Climbing FlightAware ADS-B (KONZ)
Tue 01:04:23 PM 30.7622 -84.8409 317° Northwest 403 464 16,100 1,077 Climbing FlightAware ADS-B
Tue 01:05:03 PM 30.8160 -84.9023 316° Northwest 432 497 16,800 1,516 Climbing FlightAware ADS-B
Tue 01:05:58 PM 30.8971 -84.9928 316° Northwest 447 514 18,500 1,620 Climbing FlightAware ADS-B
Tue 01:06:43 PM 30.9478 -85.0508 316° Northwest 429 494 19,500 1,943 Climbing Jacksonville Center
Tue 01:07:43 PM 31.0397 -85.1522 317° Northwest 439 505 21,900 2,050 Climbing Jacksonville Center
Tue 01:08:43 PM 31.1278 -85.2564 315° West 452 520 23,600 1,450 Climbing Jacksonville Center
Tue 01:09:43 PM 31.2197 -85.3558 317° Northwest 452 520 24,800 1,350 Climbing Jacksonville Center
Tue 01:10:43 PM 31.2989 -85.4722 309° West 447 514 26,300 1,800 Climbing Jacksonville Center
Tue 01:11:43 PM 31.3439 -85.6169 290° West 434 499 28,400 1,900 Climbing Jacksonville Center
Tue 01:12:43 PM 31.3892 -85.7472 292° West 434 499 30,100 1,564 Climbing Jacksonville Center
Tue 01:14:51 PM 31.4744 -85.9989 292° West 419 482 33,300 1,245 Climbing Atlanta Center
Tue 01:15:51 PM 31.5161 -86.1217 292° West 413 475 34,000 350 Climbing Atlanta Center
Tue 01:16:51 PM 31.5558 -86.2419 291° West 413 475 34,000  Level Atlanta Center
Tue 01:17:51 PM 31.5956 -86.3575 292° West 400 460 34,000  Level Atlanta Center
Tue 01:18:51 PM 31.6350 -86.4803 291° West 400 460 34,000  Level Atlanta Center
Tue 01:19:51 PM 31.6742 -86.6033 291° West 395 455 34,000  Level Atlanta Center
Tue 01:20:51 PM 31.7156 -86.7194 293° West 390 449 34,000  Level Atlanta Center
Tue 01:21:51 PM 31.7544 -86.8403 291° West 390 449 34,000  Level Atlanta Center
Tue 01:22:51 PM 31.7933 -86.9611 291° West 390 449 34,000  Level Atlanta Center
Tue 01:23:51 PM 31.8322 -87.0797 291° West 390 449 34,000  Level Atlanta Center
Tue 01:24:51 PM 31.8733 -87.1986 292° West 390 449 34,000  Level Atlanta Center
Tue 01:25:51 PM 31.9097 -87.3172 290° West 390 449 34,000  Level Atlanta Center
Tue 01:26:51 PM 31.9483 -87.4386 291° West 395 455 34,000  Level Atlanta Center
Tue 01:27:51 PM 31.9886 -87.5575 292° West 388 447 34,000  Level Atlanta Center
Tue 01:28:51 PM 32.0308 -87.6892 291° West 388 447 34,000  Level Atlanta Center
Tue 01:29:51 PM 32.0689 -87.8108 290° West 388 447 34,000  Level Atlanta Center
Tue 01:30:51 PM 32.1069 -87.9300 291° West 388 447 34,000  Level Atlanta Center
Tue 01:32:38 PM 32.1692 -88.1319 290° West 389 448 34,000  Level Memphis Center
Tue 01:33:39 PM 32.2061 -88.2525 290° West 390 449 34,000  Level Memphis Center
Tue 01:34:41 PM 32.2444 -88.3725 291° West 392 451 34,000  Level Memphis Center
Tue 01:35:43 PM 32.2814 -88.4919 290° West 390 449 34,000  Level Memphis Center
Tue 01:36:45 PM 32.3228 -88.6236 290° West 390 449 34,000  Level Memphis Center
Tue 01:37:47 PM 32.3592 -88.7428 290° West 389 448 34,000  Level Memphis Center
Tue 01:38:49 PM 32.3806 -88.8647 282° West 384 442 34,000  Level Memphis Center
Tue 01:39:51 PM 32.3858 -88.9864 273° West 376 433 34,000  Level Memphis Center
Tue 01:40:52 PM 32.3936 -89.1336 274° West 375 432 34,000 -49 Level Memphis Center
Tue 01:41:54 PM 32.3983 -89.2556 273° West 373 429 33,900  Descending Memphis Center
Tue 01:42:56 PM 32.4042 -89.3786 273° West 374 430 34,000 48 Climbing Memphis Center
Tue 01:43:59 PM 32.4097 -89.5028 273° West 377 434 34,000  Level Memphis Center
Tue 01:45:00 PM 32.4147 -89.6267 273° West 377 434 34,000  Level Memphis Center
Tue 01:46:02 PM 32.4203 -89.7511 273° West 378 435 34,000  Level Memphis Center
Tue 01:47:03 PM 32.4239 -89.8764 272° West 379 436 34,000  Level Memphis Center
Tue 01:48:05 PM 32.4308 -90.0275 273° West 382 440 34,000  Level Memphis Center
Tue 01:49:07 PM 32.4378 -90.1525 274° West 382 440 34,000  Level Memphis Center
Tue 01:50:09 PM 32.4519 -90.2803 278° West 388 447 34,000  Level Memphis Center
Tue 01:51:11 PM 32.4650 -90.4061 277° West 387 445 34,000  Level Memphis Center
Tue 01:52:13 PM 32.4775 -90.5331 277° West 388 447 34,000 -49 Level Memphis Center
Tue 01:53:14 PM 32.4919 -90.6606 278° West 390 449 33,900  Descending Memphis Center
Tue 01:54:16 PM 32.5064 -90.8133 276° West 391 450 34,000 48 Climbing Memphis Center
Tue 01:55:18 PM 32.5194 -90.9403 277° West 391 450 34,000  Level Memphis Center
Tue 01:56:20 PM 32.5322 -91.0658 277° West 388 447 34,000  Level Memphis Center
Tue 01:57:22 PM 32.5428 -91.1903 276° West 384 442 34,000  Level Memphis Center
Tue 01:58:23 PM 32.5558 -91.3186 277° West 390 449 34,000  Level Memphis Center
Tue 01:59:25 PM 32.5672 -91.4431 276° West 384 442 34,000  Level Memphis Center
Tue 02:00:27 PM 32.5789 -91.5694 276° West 386 444 34,000  Level Memphis Center
Tue 02:01:06 PM 32.5908 -91.6619 279° West 386 444 34,000  Level Fort Worth Center
Tue 02:02:08 PM 32.6019 -91.7878 276° West 387 445 34,000  Level Fort Worth Center
Tue 02:03:10 PM 32.6128 -91.9131 276° West 385 443 34,000  Level Fort Worth Center
Tue 02:04:12 PM 32.6275 -92.0658 277° West 388 447 34,000  Level Fort Worth Center
Tue 02:05:15 PM 32.6392 -92.1936 276° West 390 449 34,000  Level Fort Worth Center
Tue 02:06:17 PM 32.6508 -92.3219 276° West 392 451 34,000  Level Fort Worth Center
Tue 02:11:45 PM 32.7112 -93.0439 276° West 394 453 34,000  Level FlightAware ADS-B
Tue 02:12:23 PM 32.7180 -93.1274 275° West 395 455 34,000 -76 Level FlightAware ADS-B
Tue 02:13:04 PM 32.7252 -93.2164 275° West 396 456 33,900  Descending FlightAware ADS-B
Tue 02:13:40 PM 32.7300 -93.2763 276° West 395 455 34,000 75 Climbing FlightAware ADS-B
Tue 02:14:24 PM 32.7391 -93.3886 276° West 394 453 34,000  Level FlightAware ADS-B
Tue 02:14:50 PM 32.7432 -93.4430 275° West 393 452 34,000  Level FlightAware ADS-B
Tue 02:15:03 PM 32.7451 -93.4695 275° West 394 453 34,000  Level FlightAware ADS-B
Tue 02:15:20 PM 32.7480 -93.5091 275° West 394 453 34,000  Level FlightAware ADS-B
Tue 02:15:43 PM 32.7520 -93.5579 276° West 394 453 34,000  Level FlightAware ADS-B
Tue 02:15:56 PM 32.7542 -93.5855 276° West 394 453 34,000  Level FlightAware ADS-B
Tue 02:16:23 PM 32.7585 -93.6378 276° West 394 453 34,000  Level FlightAware ADS-B
Tue 02:16:32 PM 32.7605 -93.6633 275° West 394 453 34,000  Level FlightAware ADS-B
Tue 02:17:00 PM 32.7647 -93.7193 275° West 394 453 34,000  Level FlightAware ADS-B
Tue 02:17:10 PM 32.7667 -93.7467 275° West 393 452 34,000 -143 Level FlightAware ADS-B
Tue 02:17:42 PM 32.7717 -93.8157 275° West 394 453 33,900 -105 Descending FlightAware ADS-B
Tue 02:18:07 PM 32.7751 -93.8686 274° West 394 453 33,900  Level FlightAware ADS-B
Tue 02:18:24 PM 32.7768 -93.9038 273° West 392 451 33,900 115 Level FlightAware ADS-B
Tue 02:18:59 PM 32.7799 -93.9813 273° West 392 451 34,000 158 Climbing FlightAware ADS-B
Tue 02:19:02 PM 32.7803 -93.9879 274° West 394 453 34,000  Level FlightAware ADS-B
Tue 02:19:36 PM 32.7835 -94.0594 273° West 395 455 34,000  Level FlightAware ADS-B
Tue 02:19:45 PM 32.7844 -94.0780 273° West 397 457 34,000  Level FlightAware ADS-B
Tue 02:20:19 PM 32.7878 -94.1527 273° West 396 456 34,000  Level FlightAware ADS-B
Tue 02:20:23 PM 32.7882 -94.1614 273° West 398 458 34,000  Level FlightAware ADS-B
Tue 02:21:04 PM 32.7924 -94.2514 273° West 400 460 34,000  Level FlightAware ADS-B
Tue 02:21:44 PM 32.7961 -94.3376 273° West 402 463 34,000  Level FlightAware ADS-B
Tue 02:22:24 PM 32.7995 -94.4208 273° West 406 467 34,000  Level FlightAware ADS-B
Tue 02:23:04 PM 32.8038 -94.5138 273° West 410 472 34,000 506 Level FlightAware ADS-B
Tue 02:26:21 PM 32.8213 -94.9530 273° West 400 460 36,000 545 Climbing FlightAware ADS-B
Tue 02:26:44 PM 32.8234 -95.0012 273° West 403 464 36,000  Level FlightAware ADS-B
Tue 02:26:57 PM 32.8249 -95.0321 273° West 402 463 36,000  Level FlightAware ADS-B
Tue 02:27:58 PM 32.8302 -95.1687 273° West 407 468 36,000  Level FlightAware ADS-B
Tue 02:28:33 PM 32.8328 -95.2453 272° West 403 464 36,000  Level FlightAware ADS-B
Tue 02:33:55 PM 32.8570 -95.9500 273° West 407 468 36,000  Level FlightAware ADS-B
Tue 02:34:36 PM 32.8596 -96.0348 272° West 408 470 36,000  Level FlightAware ADS-B
Tue 02:36:26 PM 32.8671 -96.2852 272° West 407 468 36,000  Level FlightAware ADS-B
Tue 02:36:38 PM 32.8671 -96.2852 121° Southeast 406 467 36,000  Level FlightAware ADS-B
Tue 02:38:13 PM 32.8731 -96.5092 272° West 407 468 36,000  Level FlightAware ADS-B
Tue 02:39:39 PM 32.8783 -96.7036 272° West 408 470 36,000  Level FlightAware ADS-B
Tue 02:40:20 PM 32.8807 -96.8055 272° West 410 472 36,000  Level FlightAware ADS-B
Tue 02:40:47 PM 32.8821 -96.8733 271° West 411 473 36,000  Level FlightAware ADS-B
Tue 02:40:57 PM 32.8824 -96.8853 272° West 412 474 36,000  Level FlightAware ADS-B
Tue 02:41:17 PM 32.8838 -96.9409 272° West 412 474 36,000  Level FlightAware ADS-B
Tue 02:41:38 PM 32.8848 -96.9798 272° West 414 476 36,000  Level FlightAware ADS-B
Tue 02:41:48 PM 32.8857 -97.0120 272° West 414 476 36,000  Level FlightAware ADS-B
Tue 02:42:19 PM 32.8869 -97.0718 271° West 415 478 36,000  Level FlightAware ADS-B
Tue 02:43:00 PM 32.8893 -97.1669 272° West 418 481 36,000  Level FlightAware ADS-B
Tue 02:43:37 PM 32.8963 -97.2511 276° West 423 487 36,000  Level FlightAware ADS-B
Tue 02:44:18 PM 32.9047 -97.3449 276° West 424 488 36,000  Level FlightAware ADS-B
Tue 02:44:59 PM 32.9131 -97.4412 276° West 426 490 36,000  Level FlightAware ADS-B
Tue 02:45:40 PM 32.9217 -97.5378 276° West 429 494 36,000  Level FlightAware ADS-B
Tue 02:46:17 PM 32.9291 -97.6225 276° West 431 496 36,000  Level FlightAware ADS-B
Tue 02:46:58 PM 32.9373 -97.7181 276° West 432 497 36,000  Level FlightAware ADS-B
Tue 02:47:39 PM 32.9459 -97.8181 276° West 434 499 36,000  Level FlightAware ADS-B
Tue 02:48:16 PM 32.9533 -97.9078 276° West 435 501 36,000  Level FlightAware ADS-B
Tue 02:48:57 PM 32.9610 -98.0010 276° West 436 502 36,000  Level FlightAware ADS-B
Tue 02:49:30 PM 32.9675 -98.0758 276° West 437 503 36,000  Level FlightAware ADS-B
Tue 02:50:46 PM 32.9828 -98.2597 276° West 436 502 36,000 -43 Level Fort Worth Center
Tue 02:51:48 PM 32.9958 -98.4050 276° West 439 505 35,900  Descending Fort Worth Center
Tue 02:52:50 PM 33.0081 -98.5625 275° West 443 510 36,000 48 Climbing Fort Worth Center
Tue 02:53:52 PM 33.0197 -98.7106 275° West 448 516 36,000  Level Fort Worth Center
Tue 02:54:54 PM 33.0292 -98.8586 274° West 450 518 36,000  Level Fort Worth Center
Tue 02:55:56 PM 33.0408 -99.0078 275° West 453 521 36,000  Level Fort Worth Center
Tue 02:56:58 PM 33.0528 -99.1578 275° West 455 524 36,000  Level Fort Worth Center
Tue 02:58:00 PM 33.0639 -99.3067 275° West 453 521 36,000  Level Fort Worth Center
Tue 02:59:02 PM 33.0772 -99.4867 275° West 456 525 36,000  Level Fort Worth Center
Tue 03:00:04 PM 33.0875 -99.6336 275° West 451 519 36,000  Level Fort Worth Center
Tue 03:01:06 PM 33.0989 -99.7806 275° West 449 517 36,000 -48 Level Fort Worth Center
Tue 03:02:08 PM 33.1083 -99.9256 274° West 444 511 35,900  Descending Fort Worth Center
Tue 03:03:10 PM 33.1167 -100.0706 274° West 443 510 36,000 48 Climbing Fort Worth Center
Tue 03:04:12 PM 33.1286 -100.2456 275° West 444 511 36,000  Level Fort Worth Center
Tue 03:05:14 PM 33.1383 -100.3931 275° West 448 516 36,000  Level Fort Worth Center
Tue 03:06:16 PM 33.1478 -100.5414 274° West 450 518 36,000  Level Fort Worth Center
Tue 03:07:18 PM 33.1556 -100.6892 274° West 449 517 36,000  Level Fort Worth Center
Tue 03:08:19 PM 33.1653 -100.8367 275° West 447 514 36,000 -49 Level Fort Worth Center
Tue 03:09:21 PM 33.1742 -100.9833 274° West 445 512 35,900  Descending Fort Worth Center
Tue 03:10:23 PM 33.1872 -101.1606 275° West 448 516 36,000 48 Climbing Fort Worth Center
Tue 03:11:25 PM 33.1953 -101.3075 274° West 445 512 36,000  Level Fort Worth Center
Tue 03:12:27 PM 33.2031 -101.4625 273° West 446 513 36,000  Level Fort Worth Center
Tue 03:13:29 PM 33.2119 -101.6089 274° West 446 513 36,000  Level Fort Worth Center
Tue 03:14:31 PM 33.2203 -101.7547 274° West 445 512 36,000  Level Fort Worth Center
Tue 03:15:33 PM 33.2261 -101.9014 273° West 447 514 36,000  Level Fort Worth Center
Tue 03:16:35 PM 33.2336 -102.0472 274° West 444 511 36,000  Level Fort Worth Center
Tue 03:17:37 PM 33.2433 -102.2219 274° West 443 510 36,000  Level Fort Worth Center
Tue 03:18:39 PM 33.2503 -102.3664 273° West 441 507 36,000  Level Fort Worth Center
Tue 03:19:41 PM 33.2572 -102.5139 273° West 447 514 36,000  Level Fort Worth Center
Tue 03:20:43 PM 33.2644 -102.6594 273° West 445 512 36,000  Level Fort Worth Center
Tue 03:21:45 PM 33.2714 -102.8053 273° West 443 510 36,000  Level Fort Worth Center
Tue 03:22:20 PM 33.2750 -102.8919 273° West 442 509 36,000  Level Albuquerque Center
Tue 03:23:22 PM 33.2828 -103.0667 273° West 442 509 36,000  Level Albuquerque Center
Tue 03:24:24 PM 33.2897 -103.2094 273° West 438 504 36,000  Level Albuquerque Center
Tue 03:25:25 PM 33.2942 -103.3558 272° West 441 507 36,000  Level Albuquerque Center
Tue 03:26:27 PM 33.2992 -103.5008 272° West 441 507 36,000  Level Albuquerque Center
Tue 03:27:29 PM 33.3044 -103.6444 273° West 438 504 36,000 -48 Level Albuquerque Center
Tue 03:28:31 PM 33.3147 -103.8086 274° West 434 499 35,900  Descending Albuquerque Center
Tue 03:29:32 PM 33.3200 -103.9644 272° West 437 503 36,000 49 Climbing Albuquerque Center
Tue 03:30:34 PM 33.3239 -104.1094 272° West 438 504 36,000  Level Albuquerque Center
Tue 03:31:36 PM 33.3292 -104.2539 273° West 437 503 36,000  Level Albuquerque Center
Tue 03:32:38 PM 33.3325 -104.4042 272° West 437 503 36,000  Level Albuquerque Center
Tue 03:33:39 PM 33.3378 -104.5500 273° West 438 504 36,000  Level Albuquerque Center
Tue 03:34:41 PM 33.3397 -104.7097 271° West 440 506 36,000  Level Albuquerque Center
Tue 03:35:43 PM 33.3361 -104.8553 268° West 439 505 36,000  Level Albuquerque Center
Tue 03:36:45 PM 33.3336 -105.0117 269° West 439 505 36,000  Level Albuquerque Center
Tue 03:37:47 PM 33.3322 -105.1583 269° West 442 509 36,000  Level Albuquerque Center
Tue 03:38:49 PM 33.3294 -105.3172 269° West 445 512 36,000  Level Albuquerque Center
Tue 03:39:50 PM 33.3275 -105.4636 269° West 444 511 36,000 -49 Level Albuquerque Center
Tue 03:40:52 PM 33.3247 -105.6083 269° West 443 510 35,900 194 Descending Albuquerque Center
Tue 03:41:54 PM 33.3228 -105.7567 269° West 446 513 36,400 629 Climbing Albuquerque Center
Tue 03:42:56 PM 33.3194 -105.9056 269° West 450 518 37,200 726 Climbing Albuquerque Center
Tue 03:43:58 PM 33.3156 -106.0525 268° West 447 514 37,900 390 Climbing Albuquerque Center
Tue 03:44:59 PM 33.3128 -106.2011 269° West 447 514 38,000  Climbing Albuquerque Center
Tue 03:46:01 PM 33.3094 -106.3789 269° West 448 516 37,900 -48 Descending Albuquerque Center
Tue 03:47:03 PM 33.3067 -106.5303 269° West 452 520 37,900  Level Albuquerque Center
Tue 03:48:05 PM 33.3033 -106.6806 269° West 455 524 37,900  Level Albuquerque Center
Tue 03:49:07 PM 33.2981 -106.8300 268° West 455 524 37,900  Level Albuquerque Center
Tue 03:50:09 PM 33.2928 -106.9778 268° West 451 519 37,900  Level Albuquerque Center
Tue 03:51:11 PM 33.2889 -107.1267 268° West 451 519 37,900  Level Albuquerque Center
Tue 03:52:12 PM 33.2847 -107.3028 268° West 448 516 37,900  Level Albuquerque Center
Tue 03:53:14 PM 33.2922 -107.4511 274° West 451 519 37,900 48 Level Albuquerque Center
Tue 03:54:16 PM 33.2994 -107.5992 273° West 451 519 38,000 48 Climbing Albuquerque Center
Tue 03:55:18 PM 33.3050 -107.7478 273° West 451 519 38,000  Level Albuquerque Center
Tue 03:56:20 PM 33.3131 -107.9031 274° West 451 519 38,000  Level Albuquerque Center
Tue 03:57:22 PM 33.3192 -108.0511 273° West 450 518 38,000  Level Albuquerque Center
Tue 03:58:24 PM 33.3256 -108.2000 273° West 451 519 38,000  Level Albuquerque Center
Tue 03:59:25 PM 33.3342 -108.3792 273° West 452 520 38,000  Level Albuquerque Center
Tue 04:00:27 PM 33.3414 -108.5283 273° West 453 521 38,000  Level Albuquerque Center
Tue 04:01:29 PM 33.3489 -108.6775 273° West 453 521 38,000  Level Albuquerque Center
Tue 04:02:31 PM 33.3547 -108.8261 273° West 452 520 38,000  Level Albuquerque Center
Tue 04:03:33 PM 33.3608 -108.9756 273° West 455 524 38,000  Level Albuquerque Center
Tue 04:04:34 PM 33.3678 -109.1553 273° West 456 525 38,000  Level Albuquerque Center
Tue 04:05:36 PM 33.3731 -109.3056 272° West 457 526 38,000  Level Albuquerque Center
Tue 04:06:38 PM 33.3775 -109.4561 272° West 457 526 38,000  Level Albuquerque Center
Tue 04:07:40 PM 33.3825 -109.6064 272° West 456 525 38,000  Level Albuquerque Center
Tue 04:08:42 PM 33.3869 -109.7564 272° West 454 522 38,000  Level Albuquerque Center
Tue 04:09:43 PM 33.3908 -109.9064 272° West 453 521 38,000  Level Albuquerque Center
Tue 04:10:45 PM 33.3956 -110.0867 272° West 453 521 38,000  Level Albuquerque Center
Tue 04:16:06 PM 33.4365 -110.8924 272° West 453 521 38,000  Level FlightAware ADS-B
Tue 04:17:02 PM 33.4499 -111.0163 277° West 453 521 38,000  Level FlightAware ADS-B
Tue 04:17:45 PM 33.4628 -111.1365 277° West 452 520 38,000  Level FlightAware ADS-B
Tue 04:18:23 PM 33.4689 -111.1744 277° West 449 517 38,000  Level Los Angeles Center
Tue 04:18:59 PM 33.4814 -111.2925 277° West 448 516 38,000  Level Albuquerque Center
Tue 04:20:01 PM 33.4958 -111.4422 277° West 450 518 38,000  Level Albuquerque Center
Tue 04:21:03 PM 33.5117 -111.6211 276° West 449 517 38,000  Level Albuquerque Center
Tue 04:22:04 PM 33.5261 -111.7700 277° West 449 517 38,000  Level Albuquerque Center
Tue 04:23:06 PM 33.5406 -111.9192 277° West 448 516 38,000  Level Albuquerque Center
Tue 04:24:08 PM 33.5531 -112.0675 276° West 446 513 38,000  Level Albuquerque Center
Tue 04:25:10 PM 33.5656 -112.2153 276° West 444 511 38,000  Level Albuquerque Center
Tue 04:26:11 PM 33.5783 -112.3644 276° West 447 514 38,000  Level Albuquerque Center
Tue 04:27:13 PM 33.5919 -112.5119 276° West 445 512 38,000 -48 Level Albuquerque Center
Tue 04:28:15 PM 33.6042 -112.6608 276° West 446 513 37,900 -97 Descending Albuquerque Center
Tue 04:29:17 PM 33.6169 -112.8108 276° West 449 517 37,800 -585 Descending Albuquerque Center
Tue 04:30:18 PM 33.6328 -112.9883 276° West 451 519 36,700 -1,024 Descending Albuquerque Center
Tue 04:31:20 PM 33.6456 -113.1325 276° West 443 510 35,700 -968 Descending Albuquerque Center
Tue 04:32:22 PM 33.6572 -113.2808 275° West 445 512 34,700 -829 Descending Albuquerque Center
Tue 04:33:23 PM 33.6683 -113.4311 275° West 451 519 34,000 -341 Descending Albuquerque Center
Tue 04:34:25 PM 33.6811 -113.5817 276° West 455 524 34,000  Level Albuquerque Center
Tue 04:35:27 PM 33.6925 -113.7325 275° West 455 524 34,000  Level Albuquerque Center
Tue 04:36:28 PM 33.7033 -113.8822 275° West 452 520 34,000  Level Albuquerque Center
Tue 04:37:30 PM 33.7172 -114.0614 275° West 451 519 34,000  Level Albuquerque Center
Tue 04:38:32 PM 33.7281 -114.2119 275° West 451 519 34,000  Level Albuquerque Center
Tue 04:39:34 PM 33.7392 -114.3567 275° West 452 520 34,000  Level Albuquerque Center
Tue 04:40:20 PM 33.7489 -114.4658 276° West 454 522 34,000  Level Los Angeles Center
Tue 04:41:22 PM 33.7589 -114.6156 275° West 452 520 34,000 -48 Level Los Angeles Center
Tue 04:42:24 PM 33.7706 -114.7936 275° West 448 516 33,900 -48 Descending Los Angeles Center
Tue 04:43:26 PM 33.7811 -114.9422 275° West 448 516 33,900  Level Los Angeles Center
Tue 04:44:28 PM 33.7900 -115.0906 274° West 448 516 33,900 -339 Level Los Angeles Center
Tue 04:45:30 PM 33.7997 -115.2403 275° West 451 519 33,200 -774 Descending Los Angeles Center
Tue 04:46:32 PM 33.8100 -115.3903 275° West 452 520 32,300 -919 Descending Los Angeles Center
Tue 04:47:34 PM 33.8186 -115.5394 274° West 450 518 31,300 -1,606 Descending Los Angeles Center
Tue 04:53:38 PM 33.8696 -116.4505 274° West 405 466 20,900 -1,938 Descending FlightAware ADS-B
Tue 04:55:06 PM 33.8801 -116.6512 274° West 405 466 16,700 -2,531 Descending FlightAware ADS-B
Tue 04:55:46 PM 33.8840 -116.7383 273° West 378 435 15,500 -1,714 Descending FlightAware ADS-B
Tue 04:56:44 PM 33.8883 -116.8582 273° West 370 426 13,900 -1,125 Descending FlightAware ADS-B
Tue 04:57:22 PM 33.8774 -116.9308 260° West 371 427 13,700 -1,421 Descending FlightAware ADS-B
Tue 04:58:00 PM 33.8677 -117.0015 261° West 367 422 12,100 -1,895 Descending FlightAware ADS-B
Tue 04:58:38 PM 33.8562 -117.0800 260° West 348 400 11,300 -975 Descending FlightAware ADS-B
Tue 04:59:20 PM 33.8447 -117.1561 260° West 311 358 10,800 -675 Descending FlightAware ADS-B
Tue 04:59:58 PM 33.8358 -117.2195 260° West 283 326 10,400 -915 Descending FlightAware ADS-B
Tue 05:00:19 PM 33.8308 -117.2543 260° West 280 322 9,900 -1,535 Descending FlightAware ADS-B
Tue 05:00:41 PM 33.8265 -117.2853 261° West 281 323 9,300 -1,538 Descending FlightAware ADS-B
Tue 05:00:58 PM 33.8228 -117.3144 261° West 279 321 8,900 -1,579 Descending FlightAware ADS-B
Tue 05:01:19 PM 33.8183 -117.3435 259° West 278 320 8,300 -1,429 Descending FlightAware ADS-B
Tue 05:01:40 PM 33.8125 -117.3778 259° West 274 315 7,900 -615 Descending FlightAware ADS-B
Tue 05:01:58 PM 33.8090 -117.3999 259° West 276 318 7,900  Level FlightAware ADS-B
Tue 05:02:19 PM 33.8036 -117.4354 260° West 275 316 7,900  Level FlightAware ADS-B
Tue 05:02:40 PM 33.7993 -117.4631 259° West 276 318 7,900  Level FlightAware ADS-B
Tue 05:02:57 PM 33.7951 -117.4887 259° West 275 316 7,900 -154 Level FlightAware ADS-B
Tue 05:03:19 PM 33.7895 -117.5254 260° West 277 319 7,800 -545 Descending FlightAware ADS-B
Tue 05:03:41 PM 33.7853 -117.5568 261° West 272 313 7,500 -1,077 Descending FlightAware ADS-B
Tue 05:03:58 PM 33.7823 -117.5776 260° West 272 313 7,100 -1,579 Descending FlightAware ADS-B
Tue 05:04:19 PM 33.7778 -117.6140 262° West 269 310 6,500 -977 Descending FlightAware ADS-B
Tue 05:04:41 PM 33.7661 -117.6438 245° Southwest 271 312 6,400 -940 Descending FlightAware ADS-B
Tue 05:05:42 PM 33.7347 -117.7251 245° Southwest 273 314 5,200 -1,229 Descending FlightAware ADS-B
Tue 05:06:04 PM 33.7232 -117.7563 246° West 270 311 4,700 -1,395 Descending FlightAware ADS-B
Tue 05:06:25 PM 33.7121 -117.7863 246° West 264 304 4,200 -885 Descending FlightAware ADS-B
Tue 05:07:05 PM 33.6932 -117.8407 247° West 261 300 3,800 -421 Descending FlightAware ADS-B
Tue 05:07:22 PM 33.6890 -117.8591 255° West 241 277 3,800 154 Level FlightAware ADS-B
Tue 05:07:44 PM 33.6853 -117.8904 262° West 241 277 3,900 -279 Climbing FlightAware ADS-B
Tue 05:08:05 PM 33.6815 -117.9188 261° West 241 277 3,600 -675 Descending FlightAware ADS-B
Tue 05:10:15 PM 33.7275 -118.0406 294° West 167 192 2,200 -710 Descending FlightAware ADS-B
Tue 05:10:54 PM 33.7486 -118.0649 316° Northwest 159 183 1,600 -947 Descending FlightAware ADS-B
Tue 05:11:12 PM 33.7575 -118.0752 316° Northwest 159 183 1,300 -575 Descending FlightAware ADS-B
Tue 05:12:07 PM 33.7833 -118.1167 316° Northwest 157 181 900 -455 Descending Southern California TRACON
Tue 05:13:37 PM 33.8256 -118.1594 320° Northwest 159 183 200 -467 Descending Los Angeles Center
Tue 05:15:00 PM 33.8167 -118.1500 North  Level FlightAware Approximate

Login

Don't have an account? Register now (free) for customized features, flight alerts, and more!